sensor_id;sensor_type;location;lat;lon;timestamp;P1;durP1;ratioP1;P2;durP2;ratioP2
30249;SDS011;17064;47.974;13.826;2023-04-24T00:03:20;1.67;;;1.17;;
30249;SDS011;17064;47.974;13.826;2023-04-24T00:08:22;1.42;;;1.00;;
30249;SDS011;17064;47.974;13.826;2023-04-24T00:13:23;1.20;;;1.10;;
30249;SDS011;17064;47.974;13.826;2023-04-24T00:18:24;1.45;;;1.20;;
30249;SDS011;17064;47.974;13.826;2023-04-24T00:23:25;1.88;;;1.17;;
30249;SDS011;17064;47.974;13.826;2023-04-24T00:28:25;3.17;;;1.63;;
30249;SDS011;17064;47.974;13.826;2023-04-24T00:33:26;4.25;;;1.88;;
30249;SDS011;17064;47.974;13.826;2023-04-24T00:38:27;3.35;;;2.00;;
30249;SDS011;17064;47.974;13.826;2023-04-24T00:43:27;3.97;;;2.58;;
30249;SDS011;17064;47.974;13.826;2023-04-24T00:48:28;3.88;;;1.90;;
30249;SDS011;17064;47.974;13.826;2023-04-24T00:53:29;5.47;;;2.13;;
30249;SDS011;17064;47.974;13.826;2023-04-24T00:58:30;3.22;;;2.92;;
30249;SDS011;17064;47.974;13.826;2023-04-24T01:03:31;4.30;;;2.65;;
30249;SDS011;17064;47.974;13.826;2023-04-24T01:08:33;3.80;;;2.30;;
30249;SDS011;17064;47.974;13.826;2023-04-24T01:13:35;5.85;;;2.33;;
30249;SDS011;17064;47.974;13.826;2023-04-24T01:18:36;4.18;;;2.55;;
30249;SDS011;17064;47.974;13.826;2023-04-24T01:23:38;3.35;;;1.88;;
30249;SDS011;17064;47.974;13.826;2023-04-24T01:28:39;4.78;;;2.25;;
30249;SDS011;17064;47.974;13.826;2023-04-24T01:33:40;2.88;;;2.00;;
30249;SDS011;17064;47.974;13.826;2023-04-24T01:38:42;3.88;;;1.90;;
30249;SDS011;17064;47.974;13.826;2023-04-24T01:43:42;3.03;;;1.90;;
30249;SDS011;17064;47.974;13.826;2023-04-24T01:48:44;2.83;;;1.80;;
30249;SDS011;17064;47.974;13.826;2023-04-24T01:53:45;2.10;;;1.40;;
30249;SDS011;17064;47.974;13.826;2023-04-24T01:58:46;3.92;;;1.50;;
30249;SDS011;17064;47.974;13.826;2023-04-24T02:03:47;2.65;;;1.08;;
30249;SDS011;17064;47.974;13.826;2023-04-24T02:08:48;2.15;;;1.35;;
30249;SDS011;17064;47.974;13.826;2023-04-24T02:13:48;2.65;;;1.27;;
30249;SDS011;17064;47.974;13.826;2023-04-24T02:18:50;1.30;;;1.20;;
30249;SDS011;17064;47.974;13.826;2023-04-24T02:23:51;0.70;;;0.70;;
30249;SDS011;17064;47.974;13.826;2023-04-24T02:28:51;3.20;;;0.70;;
30249;SDS011;17064;47.974;13.826;2023-04-24T02:33:52;1.30;;;1.20;;
30249;SDS011;17064;47.974;13.826;2023-04-24T02:38:53;1.27;;;0.90;;
30249;SDS011;17064;47.974;13.826;2023-04-24T02:43:53;1.02;;;0.88;;
30249;SDS011;17064;47.974;13.826;2023-04-24T02:48:54;1.10;;;0.95;;
30249;SDS011;17064;47.974;13.826;2023-04-24T02:53:55;1.35;;;1.25;;
30249;SDS011;17064;47.974;13.826;2023-04-24T02:58:56;0.65;;;0.60;;
30249;SDS011;17064;47.974;13.826;2023-04-24T03:03:56;1.27;;;0.80;;
30249;SDS011;17064;47.974;13.826;2023-04-24T03:08:58;0.80;;;0.65;;
30249;SDS011;17064;47.974;13.826;2023-04-24T03:13:58;0.70;;;0.70;;
30249;SDS011;17064;47.974;13.826;2023-04-24T03:18:59;1.00;;;0.90;;
30249;SDS011;17064;47.974;13.826;2023-04-24T03:24:00;0.95;;;0.60;;
30249;SDS011;17064;47.974;13.826;2023-04-24T03:29:01;1.13;;;0.68;;
30249;SDS011;17064;47.974;13.826;2023-04-24T03:34:01;0.98;;;0.50;;
30249;SDS011;17064;47.974;13.826;2023-04-24T03:39:02;0.85;;;0.50;;
30249;SDS011;17064;47.974;13.826;2023-04-24T03:44:03;0.63;;;0.55;;
30249;SDS011;17064;47.974;13.826;2023-04-24T03:49:04;0.43;;;0.43;;
30249;SDS011;17064;47.974;13.826;2023-04-24T03:54:05;0.57;;;0.43;;
30249;SDS011;17064;47.974;13.826;2023-04-24T03:59:05;2.20;;;0.50;;
30249;SDS011;17064;47.974;13.826;2023-04-24T04:04:06;1.13;;;0.50;;
30249;SDS011;17064;47.974;13.826;2023-04-24T04:09:08;0.40;;;0.32;;
30249;SDS011;17064;47.974;13.826;2023-04-24T04:14:08;2.28;;;0.40;;
30249;SDS011;17064;47.974;13.826;2023-04-24T04:19:09;0.77;;;0.52;;
30249;SDS011;17064;47.974;13.826;2023-04-24T04:24:10;2.17;;;0.38;;
30249;SDS011;17064;47.974;13.826;2023-04-24T04:29:10;1.65;;;0.32;;
30249;SDS011;17064;47.974;13.826;2023-04-24T04:34:12;0.47;;;0.40;;
30249;SDS011;17064;47.974;13.826;2023-04-24T04:39:13;1.75;;;0.40;;
30249;SDS011;17064;47.974;13.826;2023-04-24T04:44:15;0.73;;;0.47;;
30249;SDS011;17064;47.974;13.826;2023-04-24T04:49:15;1.70;;;0.45;;
30249;SDS011;17064;47.974;13.826;2023-04-24T04:54:16;3.72;;;0.90;;
30249;SDS011;17064;47.974;13.826;2023-04-24T04:59:17;16.85;;;1.35;;
30249;SDS011;17064;47.974;13.826;2023-04-24T05:04:18;0.93;;;0.38;;
30249;SDS011;17064;47.974;13.826;2023-04-24T05:09:18;1.75;;;0.50;;
30249;SDS011;17064;47.974;13.826;2023-04-24T05:14:19;1.77;;;1.10;;
30249;SDS011;17064;47.974;13.826;2023-04-24T05:19:27;1.17;;;0.57;;
30249;SDS011;17064;47.974;13.826;2023-04-24T05:24:28;1.65;;;0.47;;
30249;SDS011;17064;47.974;13.826;2023-04-24T05:29:28;1.08;;;0.68;;
30249;SDS011;17064;47.974;13.826;2023-04-24T05:34:31;0.95;;;0.30;;
30249;SDS011;17064;47.974;13.826;2023-04-24T05:39:32;2.92;;;0.65;;
30249;SDS011;17064;47.974;13.826;2023-04-24T05:44:32;1.15;;;0.40;;
30249;SDS011;17064;47.974;13.826;2023-04-24T05:49:33;1.08;;;0.68;;
30249;SDS011;17064;47.974;13.826;2023-04-24T05:54:34;0.73;;;0.60;;
30249;SDS011;17064;47.974;13.826;2023-04-24T05:59:38;6.45;;;3.95;;
30249;SDS011;17064;47.974;13.826;2023-04-24T06:09:40;11.80;;;7.32;;
30249;SDS011;17064;47.974;13.826;2023-04-24T06:14:40;5.00;;;3.10;;
30249;SDS011;17064;47.974;13.826;2023-04-24T06:19:41;7.93;;;4.30;;
30249;SDS011;17064;47.974;13.826;2023-04-24T06:24:42;3.97;;;2.33;;
30249;SDS011;17064;47.974;13.826;2023-04-24T06:29:42;5.30;;;1.95;;
30249;SDS011;17064;47.974;13.826;2023-04-24T06:34:43;5.70;;;3.72;;
30249;SDS011;17064;47.974;13.826;2023-04-24T06:39:44;4.55;;;1.80;;
30249;SDS011;17064;47.974;13.826;2023-04-24T06:44:45;5.22;;;3.33;;
30249;SDS011;17064;47.974;13.826;2023-04-24T06:49:46;3.60;;;2.50;;
30249;SDS011;17064;47.974;13.826;2023-04-24T06:54:46;3.92;;;2.20;;
30249;SDS011;17064;47.974;13.826;2023-04-24T06:59:47;2.28;;;1.20;;
30249;SDS011;17064;47.974;13.826;2023-04-24T07:04:48;1.88;;;1.05;;
30249;SDS011;17064;47.974;13.826;2023-04-24T07:09:48;3.17;;;1.10;;
30249;SDS011;17064;47.974;13.826;2023-04-24T07:14:50;1.42;;;1.00;;
30249;SDS011;17064;47.974;13.826;2023-04-24T07:19:51;1.20;;;0.98;;
30249;SDS011;17064;47.974;13.826;2023-04-24T07:24:52;4.55;;;1.20;;
30249;SDS011;17064;47.974;13.826;2023-04-24T07:29:52;1.42;;;0.57;;
30249;SDS011;17064;47.974;13.826;2023-04-24T07:34:53;1.83;;;0.55;;
30249;SDS011;17064;47.974;13.826;2023-04-24T07:39:54;1.85;;;0.80;;
30249;SDS011;17064;47.974;13.826;2023-04-24T07:44:55;1.55;;;0.70;;
30249;SDS011;17064;47.974;13.826;2023-04-24T07:49:56;3.35;;;1.40;;
30249;SDS011;17064;47.974;13.826;2023-04-24T07:54:56;1.55;;;0.43;;
30249;SDS011;17064;47.974;13.826;2023-04-24T08:00:02;1.10;;;0.50;;
30249;SDS011;17064;47.974;13.826;2023-04-24T08:05:04;1.77;;;0.50;;
30249;SDS011;17064;47.974;13.826;2023-04-24T08:10:06;2.65;;;1.10;;
30249;SDS011;17064;47.974;13.826;2023-04-24T08:15:07;2.45;;;1.30;;
30249;SDS011;17064;47.974;13.826;2023-04-24T08:20:08;0.50;;;0.50;;
30249;SDS011;17064;47.974;13.826;2023-04-24T08:25:13;1.05;;;0.60;;
30249;SDS011;17064;47.974;13.826;2023-04-24T08:30:14;2.22;;;0.60;;
30249;SDS011;17064;47.974;13.826;2023-04-24T08:35:15;1.02;;;0.40;;
30249;SDS011;17064;47.974;13.826;2023-04-24T08:40:16;1.08;;;0.50;;
30249;SDS011;17064;47.974;13.826;2023-04-24T08:45:17;1.17;;;0.50;;
30249;SDS011;17064;47.974;13.826;2023-04-24T08:50:17;1.02;;;0.50;;
30249;SDS011;17064;47.974;13.826;2023-04-24T08:55:19;1.02;;;0.20;;
30249;SDS011;17064;47.974;13.826;2023-04-24T09:00:20;0.88;;;0.43;;
30249;SDS011;17064;47.974;13.826;2023-04-24T09:05:22;0.43;;;0.43;;
30249;SDS011;17064;47.974;13.826;2023-04-24T09:10:25;0.85;;;0.60;;
30249;SDS011;17064;47.974;13.826;2023-04-24T09:15:27;2.17;;;0.60;;
30249;SDS011;17064;47.974;13.826;2023-04-24T09:20:29;1.33;;;0.22;;
30249;SDS011;17064;47.974;13.826;2023-04-24T09:25:33;1.60;;;0.50;;
30249;SDS011;17064;47.974;13.826;2023-04-24T09:30:36;1.38;;;0.30;;
30249;SDS011;17064;47.974;13.826;2023-04-24T09:35:39;0.98;;;0.30;;
30249;SDS011;17064;47.974;13.826;2023-04-24T09:40:50;0.10;;;0.10;;
30249;SDS011;17064;47.974;13.826;2023-04-24T09:45:51;1.05;;;0.52;;
30249;SDS011;17064;47.974;13.826;2023-04-24T09:50:57;0.85;;;0.32;;
30249;SDS011;17064;47.974;13.826;2023-04-24T09:56:08;0.10;;;0.10;;
30249;SDS011;17064;47.974;13.826;2023-04-24T10:01:09;0.52;;;0.20;;
30249;SDS011;17064;47.974;13.826;2023-04-24T10:06:11;2.47;;;0.40;;
30249;SDS011;17064;47.974;13.826;2023-04-24T10:11:12;0.68;;;0.30;;
30249;SDS011;17064;47.974;13.826;2023-04-24T10:16:13;0.82;;;0.30;;
30249;SDS011;17064;47.974;13.826;2023-04-24T10:21:16;0.82;;;0.20;;
30249;SDS011;17064;47.974;13.826;2023-04-24T10:26:17;0.47;;;0.20;;
30249;SDS011;17064;47.974;13.826;2023-04-24T10:31:19;0.55;;;0.20;;
30249;SDS011;17064;47.974;13.826;2023-04-24T10:36:21;0.57;;;0.55;;
30249;SDS011;17064;47.974;13.826;2023-04-24T10:41:23;0.53;;;0.20;;
30249;SDS011;17064;47.974;13.826;2023-04-24T10:46:26;0.25;;;0.20;;
30249;SDS011;17064;47.974;13.826;2023-04-24T10:51:45;1.48;;;0.32;;
30249;SDS011;17064;47.974;13.826;2023-04-24T10:56:53;2.23;;;0.43;;
30249;SDS011;17064;47.974;13.826;2023-04-24T11:02:17;2.38;;;0.30;;
30249;SDS011;17064;47.974;13.826;2023-04-24T11:07:19;0.40;;;0.30;;
30249;SDS011;17064;47.974;13.826;2023-04-24T11:12:21;0.98;;;0.40;;
30249;SDS011;17064;47.974;13.826;2023-04-24T11:22:34;2.92;;;0.20;;
30249;SDS011;17064;47.974;13.826;2023-04-24T11:27:43;0.47;;;0.30;;
30249;SDS011;17064;47.974;13.826;2023-04-24T11:32:52;2.63;;;0.30;;
30249;SDS011;17064;47.974;13.826;2023-04-24T11:37:53;0.65;;;0.22;;
30249;SDS011;17064;47.974;13.826;2023-04-24T11:42:54;2.28;;;0.30;;
30249;SDS011;17064;47.974;13.826;2023-04-24T11:47:55;3.05;;;0.30;;
30249;SDS011;17064;47.974;13.826;2023-04-24T11:52:57;0.47;;;0.30;;
30249;SDS011;17064;47.974;13.826;2023-04-24T11:57:58;1.40;;;0.30;;
30249;SDS011;17064;47.974;13.826;2023-04-24T12:03:07;6.57;;;0.30;;
30249;SDS011;17064;47.974;13.826;2023-04-24T12:08:11;0.20;;;0.20;;
30249;SDS011;17064;47.974;13.826;2023-04-24T12:13:26;1.10;;;0.40;;
30249;SDS011;17064;47.974;13.826;2023-04-24T12:18:27;2.20;;;0.68;;
30249;SDS011;17064;47.974;13.826;2023-04-24T12:23:34;1.25;;;0.60;;
30249;SDS011;17064;47.974;13.826;2023-04-24T12:28:39;2.17;;;0.50;;
30249;SDS011;17064;47.974;13.826;2023-04-24T12:33:40;0.77;;;0.40;;
30249;SDS011;17064;47.974;13.826;2023-04-24T12:38:43;0.85;;;0.70;;
30249;SDS011;17064;47.974;13.826;2023-04-24T12:43:52;0.57;;;0.40;;
30249;SDS011;17064;47.974;13.826;2023-04-24T12:48:55;2.15;;;0.40;;
30249;SDS011;17064;47.974;13.826;2023-04-24T12:53:56;1.30;;;0.47;;
30249;SDS011;17064;47.974;13.826;2023-04-24T12:58:56;2.40;;;0.60;;
30249;SDS011;17064;47.974;13.826;2023-04-24T13:03:57;1.70;;;1.02;;
30249;SDS011;17064;47.974;13.826;2023-04-24T13:08:59;0.88;;;0.70;;
30249;SDS011;17064;47.974;13.826;2023-04-24T13:14:00;2.88;;;1.08;;
30249;SDS011;17064;47.974;13.826;2023-04-24T13:19:01;1.30;;;0.45;;
30249;SDS011;17064;47.974;13.826;2023-04-24T13:24:01;4.03;;;0.70;;
30249;SDS011;17064;47.974;13.826;2023-04-24T13:29:06;2.70;;;0.70;;
30249;SDS011;17064;47.974;13.826;2023-04-24T13:34:06;1.77;;;0.80;;
30249;SDS011;17064;47.974;13.826;2023-04-24T13:39:07;1.08;;;0.80;;
30249;SDS011;17064;47.974;13.826;2023-04-24T13:44:08;2.38;;;0.65;;
30249;SDS011;17064;47.974;13.826;2023-04-24T13:49:09;1.10;;;0.90;;
30249;SDS011;17064;47.974;13.826;2023-04-24T13:54:10;2.08;;;0.63;;
30249;SDS011;17064;47.974;13.826;2023-04-24T13:59:14;0.88;;;0.70;;
30249;SDS011;17064;47.974;13.826;2023-04-24T14:04:15;1.98;;;0.50;;
30249;SDS011;17064;47.974;13.826;2023-04-24T14:09:16;0.68;;;0.43;;
30249;SDS011;17064;47.974;13.826;2023-04-24T14:14:16;3.13;;;1.38;;
30249;SDS011;17064;47.974;13.826;2023-04-24T14:19:17;0.30;;;0.30;;
30249;SDS011;17064;47.974;13.826;2023-04-24T14:24:18;0.50;;;0.45;;
30249;SDS011;17064;47.974;13.826;2023-04-24T14:29:19;2.42;;;0.68;;
30249;SDS011;17064;47.974;13.826;2023-04-24T14:34:19;1.13;;;0.70;;
30249;SDS011;17064;47.974;13.826;2023-04-24T14:39:20;1.10;;;0.70;;
30249;SDS011;17064;47.974;13.826;2023-04-24T14:44:21;5.82;;;1.02;;
30249;SDS011;17064;47.974;13.826;2023-04-24T14:49:22;3.20;;;1.27;;
30249;SDS011;17064;47.974;13.826;2023-04-24T14:54:23;2.50;;;0.68;;
30249;SDS011;17064;47.974;13.826;2023-04-24T14:59:25;1.38;;;0.80;;
30249;SDS011;17064;47.974;13.826;2023-04-24T15:04:26;2.47;;;0.88;;
30249;SDS011;17064;47.974;13.826;2023-04-24T15:09:27;2.67;;;1.10;;
30249;SDS011;17064;47.974;13.826;2023-04-24T15:14:28;2.10;;;0.98;;
30249;SDS011;17064;47.974;13.826;2023-04-24T15:19:29;0.77;;;0.77;;
30249;SDS011;17064;47.974;13.826;2023-04-24T15:24:31;4.75;;;1.13;;
30249;SDS011;17064;47.974;13.826;2023-04-24T15:29:31;1.85;;;1.02;;
30249;SDS011;17064;47.974;13.826;2023-04-24T15:34:32;2.15;;;0.80;;
30249;SDS011;17064;47.974;13.826;2023-04-24T15:39:33;3.50;;;0.93;;
30249;SDS011;17064;47.974;13.826;2023-04-24T15:44:34;2.97;;;0.80;;
30249;SDS011;17064;47.974;13.826;2023-04-24T15:49:35;1.27;;;0.80;;
30249;SDS011;17064;47.974;13.826;2023-04-24T15:54:36;5.63;;;3.88;;
30249;SDS011;17064;47.974;13.826;2023-04-24T15:59:38;3.63;;;1.30;;
30249;SDS011;17064;47.974;13.826;2023-04-24T16:04:39;3.67;;;1.77;;
30249;SDS011;17064;47.974;13.826;2023-04-24T16:09:40;5.13;;;1.30;;
30249;SDS011;17064;47.974;13.826;2023-04-24T16:14:41;3.60;;;1.50;;
30249;SDS011;17064;47.974;13.826;2023-04-24T16:19:41;2.13;;;1.30;;
30249;SDS011;17064;47.974;13.826;2023-04-24T16:24:42;2.88;;;1.50;;
30249;SDS011;17064;47.974;13.826;2023-04-24T16:29:43;2.95;;;2.60;;
30249;SDS011;17064;47.974;13.826;2023-04-24T16:34:44;2.42;;;1.40;;
30249;SDS011;17064;47.974;13.826;2023-04-24T16:39:45;3.25;;;1.42;;
30249;SDS011;17064;47.974;13.826;2023-04-24T16:44:46;3.13;;;1.50;;
30249;SDS011;17064;47.974;13.826;2023-04-24T16:49:50;3.20;;;1.73;;
30249;SDS011;17064;47.974;13.826;2023-04-24T16:54:51;2.22;;;1.30;;
30249;SDS011;17064;47.974;13.826;2023-04-24T16:59:52;4.90;;;1.42;;
30249;SDS011;17064;47.974;13.826;2023-04-24T17:04:53;2.53;;;1.90;;
30249;SDS011;17064;47.974;13.826;2023-04-24T17:09:54;1.63;;;1.30;;
30249;SDS011;17064;47.974;13.826;2023-04-24T17:14:55;5.65;;;1.23;;
30249;SDS011;17064;47.974;13.826;2023-04-24T17:19:57;1.23;;;1.13;;
30249;SDS011;17064;47.974;13.826;2023-04-24T17:24:57;2.55;;;1.50;;
30249;SDS011;17064;47.974;13.826;2023-04-24T17:29:58;1.67;;;1.27;;
30249;SDS011;17064;47.974;13.826;2023-04-24T17:34:59;1.85;;;1.48;;
30249;SDS011;17064;47.974;13.826;2023-04-24T17:40:04;2.30;;;1.38;;
30249;SDS011;17064;47.974;13.826;2023-04-24T17:45:06;1.67;;;1.25;;
30249;SDS011;17064;47.974;13.826;2023-04-24T17:50:07;1.42;;;1.27;;
30249;SDS011;17064;47.974;13.826;2023-04-24T17:55:08;2.67;;;1.80;;
30249;SDS011;17064;47.974;13.826;2023-04-24T18:00:09;3.65;;;1.25;;
30249;SDS011;17064;47.974;13.826;2023-04-24T18:05:11;3.13;;;1.58;;
30249;SDS011;17064;47.974;13.826;2023-04-24T18:10:13;5.57;;;1.98;;
30249;SDS011;17064;47.974;13.826;2023-04-24T18:15:14;2.35;;;2.03;;
30249;SDS011;17064;47.974;13.826;2023-04-24T18:20:16;2.95;;;1.85;;
30249;SDS011;17064;47.974;13.826;2023-04-24T18:25:18;2.63;;;1.35;;
30249;SDS011;17064;47.974;13.826;2023-04-24T18:30:25;3.55;;;1.63;;
30249;SDS011;17064;47.974;13.826;2023-04-24T18:35:27;3.58;;;1.60;;
30249;SDS011;17064;47.974;13.826;2023-04-24T18:40:28;5.82;;;1.92;;
30249;SDS011;17064;47.974;13.826;2023-04-24T18:45:28;10.10;;;1.85;;
30249;SDS011;17064;47.974;13.826;2023-04-24T18:50:29;4.55;;;1.88;;
30249;SDS011;17064;47.974;13.826;2023-04-24T18:55:31;2.88;;;1.70;;
30249;SDS011;17064;47.974;13.826;2023-04-24T19:00:34;1.80;;;1.40;;
30249;SDS011;17064;47.974;13.826;2023-04-24T19:05:35;2.13;;;1.90;;
30249;SDS011;17064;47.974;13.826;2023-04-24T19:10:35;1.50;;;1.17;;
30249;SDS011;17064;47.974;13.826;2023-04-24T19:15:36;1.38;;;1.27;;
30249;SDS011;17064;47.974;13.826;2023-04-24T19:20:39;8.00;;;2.00;;
30249;SDS011;17064;47.974;13.826;2023-04-24T19:25:40;2.30;;;1.65;;
30249;SDS011;17064;47.974;13.826;2023-04-24T19:30:41;2.80;;;1.40;;
30249;SDS011;17064;47.974;13.826;2023-04-24T19:35:42;3.13;;;1.30;;
30249;SDS011;17064;47.974;13.826;2023-04-24T19:40:43;1.58;;;1.15;;
30249;SDS011;17064;47.974;13.826;2023-04-24T19:45:44;1.15;;;1.00;;
30249;SDS011;17064;47.974;13.826;2023-04-24T19:50:45;3.13;;;1.10;;
30249;SDS011;17064;47.974;13.826;2023-04-24T19:55:46;3.47;;;1.70;;
30249;SDS011;17064;47.974;13.826;2023-04-24T20:00:47;2.53;;;1.77;;
30249;SDS011;17064;47.974;13.826;2023-04-24T20:05:47;2.55;;;1.42;;
30249;SDS011;17064;47.974;13.826;2023-04-24T20:10:48;2.70;;;1.33;;
30249;SDS011;17064;47.974;13.826;2023-04-24T20:15:49;2.95;;;1.52;;
30249;SDS011;17064;47.974;13.826;2023-04-24T20:20:52;2.90;;;1.88;;
30249;SDS011;17064;47.974;13.826;2023-04-24T20:25:55;3.38;;;1.65;;
30249;SDS011;17064;47.974;13.826;2023-04-24T20:31:00;4.30;;;1.55;;
30249;SDS011;17064;47.974;13.826;2023-04-24T20:36:00;3.22;;;1.50;;
30249;SDS011;17064;47.974;13.826;2023-04-24T20:41:01;6.38;;;1.40;;
30249;SDS011;17064;47.974;13.826;2023-04-24T20:46:02;1.73;;;1.25;;
30249;SDS011;17064;47.974;13.826;2023-04-24T20:51:04;6.53;;;1.17;;
30249;SDS011;17064;47.974;13.826;2023-04-24T20:56:05;1.67;;;1.17;;
30249;SDS011;17064;47.974;13.826;2023-04-24T21:01:07;3.53;;;1.23;;
30249;SDS011;17064;47.974;13.826;2023-04-24T21:06:08;3.30;;;1.10;;
30249;SDS011;17064;47.974;13.826;2023-04-24T21:11:09;2.50;;;1.17;;
30249;SDS011;17064;47.974;13.826;2023-04-24T21:16:10;3.45;;;1.38;;
30249;SDS011;17064;47.974;13.826;2023-04-24T21:21:11;2.92;;;1.35;;
30249;SDS011;17064;47.974;13.826;2023-04-24T21:26:11;2.85;;;1.20;;
30249;SDS011;17064;47.974;13.826;2023-04-24T21:31:12;3.15;;;1.77;;
30249;SDS011;17064;47.974;13.826;2023-04-24T21:36:13;2.75;;;1.40;;
30249;SDS011;17064;47.974;13.826;2023-04-24T21:41:13;2.33;;;0.85;;
30249;SDS011;17064;47.974;13.826;2023-04-24T21:46:14;2.55;;;1.52;;
30249;SDS011;17064;47.974;13.826;2023-04-24T21:51:15;3.53;;;1.15;;
30249;SDS011;17064;47.974;13.826;2023-04-24T21:56:17;1.88;;;0.90;;
30249;SDS011;17064;47.974;13.826;2023-04-24T22:01:17;2.08;;;1.00;;
30249;SDS011;17064;47.974;13.826;2023-04-24T22:06:18;2.92;;;1.15;;
30249;SDS011;17064;47.974;13.826;2023-04-24T22:11:19;8.90;;;3.22;;
30249;SDS011;17064;47.974;13.826;2023-04-24T22:16:20;3.83;;;1.27;;
30249;SDS011;17064;47.974;13.826;2023-04-24T22:21:22;1.15;;;0.98;;
30249;SDS011;17064;47.974;13.826;2023-04-24T22:26:23;2.33;;;1.00;;
30249;SDS011;17064;47.974;13.826;2023-04-24T22:31:24;2.30;;;0.80;;
30249;SDS011;17064;47.974;13.826;2023-04-24T22:36:25;2.35;;;1.67;;
30249;SDS011;17064;47.974;13.826;2023-04-24T22:41:26;1.13;;;0.80;;
30249;SDS011;17064;47.974;13.826;2023-04-24T22:46:26;1.60;;;1.10;;
30249;SDS011;17064;47.974;13.826;2023-04-24T22:51:27;1.23;;;0.90;;
30249;SDS011;17064;47.974;13.826;2023-04-24T22:56:28;0.90;;;0.90;;
30249;SDS011;17064;47.974;13.826;2023-04-24T23:01:30;4.78;;;0.93;;
30249;SDS011;17064;47.974;13.826;2023-04-24T23:06:31;1.73;;;0.95;;
30249;SDS011;17064;47.974;13.826;2023-04-24T23:11:32;5.35;;;1.27;;
30249;SDS011;17064;47.974;13.826;2023-04-24T23:16:32;2.47;;;1.10;;
30249;SDS011;17064;47.974;13.826;2023-04-24T23:21:36;1.17;;;0.88;;
30249;SDS011;17064;47.974;13.826;2023-04-24T23:26:37;1.08;;;0.90;;
30249;SDS011;17064;47.974;13.826;2023-04-24T23:31:37;1.33;;;0.90;;
30249;SDS011;17064;47.974;13.826;2023-04-24T23:36:38;1.17;;;0.98;;
30249;SDS011;17064;47.974;13.826;2023-04-24T23:41:39;2.22;;;1.20;;
30249;SDS011;17064;47.974;13.826;2023-04-24T23:46:42;1.80;;;1.08;;
30249;SDS011;17064;47.974;13.826;2023-04-24T23:51:43;3.92;;;1.00;;
30249;SDS011;17064;47.974;13.826;2023-04-24T23:56:45;2.22;;;1.08;;
